Time;durP1;ratioP1;P1;durP2;ratioP2;P2;SDS_P1;SDS_P2;PMS_P1;PMS_P2;Temp;Humidity;BMP_temperature;BMP_pressure;BME280_temperature;BME280_humidity;BME280_pressure;Samples;Min_cycle;Max_cycle;Signal;HPM_P1;HPM_P2
2021/03/04 00:02:17;;;;;;;98.43;45.30;;;;;;;5.67;82.02;102494.16;5096742;28;20046;-42
2021/03/04 00:04:43;;;;;;;101.95;43.60;;;;;;;5.64;81.81;102492.63;5096662;28;20809;-42
2021/03/04 00:07:08;;;;;;;99.13;46.53;;;;;;;5.61;82.19;102481.34;5096620;28;20085;-43
2021/03/04 00:09:33;;;;;;;98.20;46.35;;;;;;;5.60;82.42;102482.34;5097182;28;20062;-42
2021/03/04 00:11:59;;;;;;;95.13;46.10;;;;;;;5.64;82.09;102481.03;5096813;28;20051;-42
2021/03/04 00:14:24;;;;;;;94.93;43.87;;;;;;;5.64;82.24;102479.19;5096467;28;20020;-42
2021/03/04 00:16:50;;;;;;;106.83;47.67;;;;;;;5.61;81.88;102473.28;5096708;28;20105;-42
2021/03/04 00:19:15;;;;;;;100.47;44.70;;;;;;;5.58;82.18;102473.63;5096696;28;20073;-42
2021/03/04 00:21:41;;;;;;;92.55;43.05;;;;;;;5.55;82.21;102472.09;5096398;28;20506;-43
2021/03/04 00:24:07;;;;;;;83.30;40.40;;;;;;;5.52;82.17;102468.91;5096624;28;20105;-43
2021/03/04 00:26:33;;;;;;;85.68;42.30;;;;;;;5.53;82.63;102475.94;5096584;28;20035;-43
2021/03/04 00:28:58;;;;;;;86.95;43.45;;;;;;;5.45;82.33;102471.34;5096224;28;20036;-43
2021/03/04 00:31:24;;;;;;;79.20;40.90;;;;;;;5.51;82.05;102485.97;5095761;28;20376;-42
2021/03/04 00:33:49;;;;;;;78.73;42.93;;;;;;;5.46;82.15;102475.72;5095960;28;20038;-43
2021/03/04 00:36:14;;;;;;;79.97;41.03;;;;;;;5.43;82.32;102482.25;5096549;28;20028;-42
2021/03/04 00:38:40;;;;;;;81.57;42.83;;;;;;;5.40;82.50;102474.50;5095349;28;20474;-42
2021/03/04 00:41:05;;;;;;;85.70;43.17;;;;;;;5.42;82.29;102480.56;5095757;28;20106;-42
2021/03/04 00:43:30;;;;;;;86.57;44.87;;;;;;;5.38;82.62;102473.00;5095773;28;20059;-42
2021/03/04 00:45:56;;;;;;;92.80;45.97;;;;;;;5.47;82.67;102468.53;5095554;28;20423;-42
2021/03/04 00:48:21;;;;;;;94.53;47.10;;;;;;;5.27;83.36;102466.06;5095861;28;20071;-42
2021/03/04 00:50:46;;;;;;;88.13;45.47;;;;;;;5.34;83.15;102458.22;5096415;28;20103;-42
2021/03/04 00:53:12;;;;;;;85.33;44.70;;;;;;;5.37;82.87;102466.78;5095719;28;20028;-42
2021/03/04 00:55:38;;;;;;;82.03;43.43;;;;;;;5.41;82.46;102459.25;5095868;28;20056;-42
2021/03/04 00:58:03;;;;;;;97.55;47.58;;;;;;;5.23;82.72;102455.78;5095618;28;20144;-42
2021/03/04 01:00:29;;;;;;;89.80;47.17;;;;;;;5.27;82.62;102433.88;5096444;28;20103;-42
2021/03/04 01:02:55;;;;;;;88.30;45.47;;;;;;;5.35;82.93;102447.31;5095507;28;20081;-42
2021/03/04 01:05:20;;;;;;;85.00;45.03;;;;;;;5.33;82.80;102437.75;5095533;28;20365;-42
2021/03/04 01:07:46;;;;;;;83.50;45.90;;;;;;;5.31;83.19;102439.72;5095718;28;20032;-43
2021/03/04 01:10:17;;;;;;;82.47;44.27;;;;;;;5.32;83.02;102441.41;5095694;28;20067;-41
2021/03/04 01:12:43;;;;;;;88.80;45.85;;;;;;;5.27;82.95;102443.72;5095715;28;20059;-42
2021/03/04 01:15:12;;;;;;;87.15;45.20;;;;;;;5.24;83.07;102449.41;5096130;28;20078;-42
2021/03/04 01:17:37;;;;;;;96.20;48.35;;;;;;;5.11;83.59;102431.03;5095213;28;20056;-42
2021/03/04 01:20:09;;;;;;;93.77;46.13;;;;;;;5.03;84.00;102426.47;5096050;28;20361;-42
2021/03/04 01:22:34;;;;;;;93.25;45.10;;;;;;;5.06;84.08;102420.78;5094703;28;20028;-42
2021/03/04 01:25:00;;;;;;;91.37;45.37;;;;;;;5.11;83.95;102409.59;5095498;28;20040;-42
2021/03/04 01:27:26;;;;;;;92.37;45.20;;;;;;;5.15;83.97;102411.81;5095609;28;20488;-42
2021/03/04 01:29:51;;;;;;;101.53;48.85;;;;;;;5.10;83.87;102415.97;5095871;28;20031;-42
2021/03/04 01:32:16;;;;;;;111.03;52.83;;;;;;;5.03;84.76;102426.47;5094703;28;20028;-42
2021/03/04 01:34:41;;;;;;;110.63;52.10;;;;;;;5.00;84.73;102415.22;5094110;28;20024;-42
2021/03/04 01:37:07;;;;;;;102.17;48.83;;;;;;;5.06;84.41;102406.53;5094650;28;20437;-42
2021/03/04 01:39:32;;;;;;;97.33;47.77;;;;;;;5.10;84.22;102399.88;5094945;28;20028;-42
2021/03/04 01:41:57;;;;;;;104.43;48.33;;;;;;;5.13;83.97;102403.09;5093546;28;20031;-42
2021/03/04 01:44:23;;;;;;;104.37;49.30;;;;;;;5.13;84.37;102402.25;5095087;28;20056;-42
2021/03/04 01:46:48;;;;;;;117.87;52.07;;;;;;;5.05;84.14;102404.88;5094321;28;20045;-42
2021/03/04 01:49:14;;;;;;;101.57;47.78;;;;;;;5.01;84.68;102400.81;5093588;28;20040;-42
2021/03/04 01:51:39;;;;;;;107.60;50.17;;;;;;;4.90;84.92;102400.06;5094649;28;20035;-42
2021/03/04 01:54:06;;;;;;;110.57;50.57;;;;;;;4.97;85.21;102420.88;5094887;28;20108;-42
2021/03/04 01:56:31;;;;;;;101.43;47.40;;;;;;;5.01;84.87;102422.25;5095400;28;20137;-42
2021/03/04 01:58:56;;;;;;;108.40;49.57;;;;;;;4.99;85.05;102421.59;5095127;28;20072;-42
2021/03/04 02:01:22;;;;;;;108.27;48.90;;;;;;;4.94;85.08;102421.22;5094206;28;20456;-42
2021/03/04 02:03:47;;;;;;;110.37;50.53;;;;;;;4.95;84.94;102415.69;5093254;28;20539;-42
2021/03/04 02:06:15;;;;;;;103.37;48.90;;;;;;;5.08;84.90;102404.56;5094828;28;20119;-42
2021/03/04 02:08:48;;;;;;;116.07;49.50;;;;;;;5.06;85.12;102399.34;5094364;28;20024;-42
2021/03/04 02:11:35;;;;;;;110.93;49.92;;;;;;;5.10;84.89;102407.91;5094334;28;20520;-42
2021/03/04 02:14:11;;;;;;;106.28;48.95;;;;;;;5.07;84.99;102413.59;5094495;28;20024;-42
2021/03/04 02:16:48;;;;;;;107.28;51.42;;;;;;;5.16;84.95;102415.31;5094485;28;20098;-42
2021/03/04 02:19:40;;;;;;;143.40;62.17;;;;;;;5.02;85.56;102402.47;5094706;28;20023;-42
2021/03/04 02:22:22;;;;;;;128.68;54.97;;;;;;;4.99;85.20;102379.53;5094137;28;20047;-42
2021/03/04 02:25:07;;;;;;;128.10;56.65;;;;;;;4.82;86.00;102364.31;5094635;28;20028;-42
2021/03/04 02:27:34;;;;;;;119.43;52.83;;;;;;;4.90;85.74;102373.25;5093076;28;20056;-42
2021/03/04 02:30:06;;;;;;;119.85;53.63;;;;;;;4.90;85.95;102362.53;5094549;28;20028;-42
2021/03/04 02:32:34;;;;;;;113.00;50.72;;;;;;;5.04;85.62;102363.81;5093912;28;20059;-42
2021/03/04 02:35:11;;;;;;;128.88;54.35;;;;;;;5.06;85.62;102358.28;5093940;28;20035;-42
2021/03/04 02:37:41;;;;;;;127.78;53.42;;;;;;;5.01;85.85;102344.50;5094315;28;20384;-42
2021/03/04 02:40:09;;;;;;;146.55;59.35;;;;;;;4.93;86.50;102339.94;5094102;28;20070;-41
2021/03/04 02:42:35;;;;;;;138.32;57.30;;;;;;;4.85;86.41;102346.06;5093343;28;20480;-41
2021/03/04 02:45:01;;;;;;;126.85;54.40;;;;;;;4.95;86.32;102353.19;5094011;28;20023;-42
2021/03/04 02:47:27;;;;;;;133.18;56.30;;;;;;;4.97;86.96;102345.81;5093696;28;20437;-41
2021/03/04 02:49:54;;;;;;;153.82;60.65;;;;;;;4.83;86.35;102337.38;5093980;28;20114;-41
2021/03/04 02:52:20;;;;;;;128.73;55.95;;;;;;;4.89;86.54;102328.69;5093068;28;20032;-42
2021/03/04 02:54:47;;;;;;;156.85;58.47;;;;;;;4.83;86.91;102325.78;5094430;28;20348;-41
2021/03/04 02:57:13;;;;;;;146.43;62.47;;;;;;;4.76;87.42;102330.09;5094095;28;20047;-41
2021/03/04 02:59:41;;;;;;;156.98;62.55;;;;;;;4.73;87.22;102328.56;5093313;28;20032;-41
2021/03/04 03:02:08;;;;;;;163.73;62.90;;;;;;;4.74;86.98;102327.59;5093755;28;20155;-41
2021/03/04 03:04:37;;;;;;;142.20;61.28;;;;;;;4.76;87.28;102330.09;5094016;28;20117;-41
2021/03/04 03:07:04;;;;;;;150.52;61.35;;;;;;;4.80;87.43;102324.28;5093390;28;20028;-41
2021/03/04 03:09:30;;;;;;;145.77;59.90;;;;;;;4.84;87.57;102314.09;5093222;28;20020;-41
2021/03/04 03:11:56;;;;;;;144.07;61.47;;;;;;;4.88;87.11;102310.94;5093414;28;20028;-41
2021/03/04 03:14:22;;;;;;;137.25;61.85;;;;;;;4.92;86.54;102322.16;5094192;28;20119;-41
2021/03/04 03:16:48;;;;;;;130.70;61.83;;;;;;;4.91;85.91;102324.00;5093350;28;20115;-41
2021/03/04 03:19:13;;;;;;;130.07;59.93;;;;;;;4.91;86.68;102325.84;5093770;28;20029;-41
2021/03/04 03:21:39;;;;;;;123.13;57.45;;;;;;;4.98;86.01;102321.53;5093369;28;20024;-41
2021/03/04 03:24:05;;;;;;;122.40;56.37;;;;;;;4.92;86.18;102322.16;5093641;28;20491;-41
2021/03/04 03:26:31;;;;;;;123.38;56.30;;;;;;;4.89;86.07;102323.31;5093469;28;20081;-41
2021/03/04 03:28:56;;;;;;;118.85;56.03;;;;;;;4.93;85.67;102318.50;5093562;28;20352;-41
2021/03/04 03:31:26;;;;;;;117.63;57.20;;;;;;;4.93;85.55;102314.94;5092991;28;20080;-41
2021/03/04 03:33:52;;;;;;;114.43;54.58;;;;;;;4.90;86.14;102308.09;5093194;28;20024;-41
2021/03/04 03:36:17;;;;;;;;;;;;;;;5.05;84.92;102305.66;5092552;28;20051;-41
2021/03/04 03:38:45;;;;;;;107.93;53.20;;;;;;;5.03;85.65;102310.34;5093808;28;20375;-41
2021/03/04 03:41:10;;;;;;;113.20;54.75;;;;;;;5.02;85.15;102305.97;5093170;28;20036;-41
2021/03/04 03:43:37;;;;;;;111.88;55.53;;;;;;;5.00;85.38;102302.63;5093982;28;20032;-41
2021/03/04 03:46:04;;;;;;;112.18;54.90;;;;;;;4.97;85.75;102298.41;5093329;28;20032;-41
2021/03/04 03:48:31;;;;;;;128.80;61.28;;;;;;;4.65;86.62;102291.00;5093080;28;20032;-41
2021/03/04 03:50:57;;;;;;;125.30;59.17;;;;;;;4.58;87.00;102288.09;5093627;28;20035;-41
2021/03/04 03:53:23;;;;;;;;;;;;;;;4.69;85.92;102273.63;5093479;28;20040;-41
2021/03/04 03:55:52;;;;;;;122.80;56.53;;;;;;;4.67;86.75;102280.94;5093351;28;19916;-41
2021/03/04 03:58:19;;;;;;;133.10;56.97;;;;;;;4.69;86.54;102297.72;5093028;28;20099;-41
2021/03/04 04:00:45;;;;;;;129.57;59.50;;;;;;;4.70;86.58;102293.22;5093273;28;20028;-41
2021/03/04 04:03:11;;;;;;;;;;;;;;;4.80;85.85;102285.91;5093657;28;20063;-41
2021/03/04 04:05:36;;;;;;;127.85;55.33;;;;;;;4.75;86.39;102288.22;5095577;28;19955;-41
2021/03/04 04:08:02;;;;;;;117.13;54.90;;;;;;;4.80;86.65;102285.91;5095588;28;20095;-41
2021/03/04 04:10:29;;;;;;;119.38;54.80;;;;;;;4.81;86.32;102282.22;5096536;28;20097;-41
2021/03/04 04:12:55;;;;;;;127.00;56.25;;;;;;;4.81;86.58;102293.78;5096250;28;20027;-42
2021/03/04 04:15:22;;;;;;;113.50;53.85;;;;;;;4.90;86.03;102294.69;5097609;28;20047;-41
2021/03/04 04:17:49;;;;;;;113.10;54.22;;;;;;;4.86;86.02;102287.94;5096121;28;20066;-41
2021/03/04 04:20:17;;;;;;;107.55;52.05;;;;;;;4.87;85.84;102289.63;5096414;28;20027;-41
2021/03/04 04:22:43;;;;;;;107.00;50.85;;;;;;;4.94;86.29;102289.84;5096294;28;20031;-41
2021/03/04 04:25:09;;;;;;;111.68;53.80;;;;;;;4.91;85.77;102294.50;5096285;28;20028;-41
2021/03/04 04:27:34;;;;;;;109.38;52.92;;;;;;;4.86;85.90;102279.91;5096697;28;20064;-41
2021/03/04 04:30:00;;;;;;;109.63;51.83;;;;;;;4.77;85.96;102273.66;5096346;28;20468;-42
2021/03/04 04:32:25;;;;;;;106.63;50.90;;;;;;;4.81;86.08;102269.66;5096194;28;20024;-42
2021/03/04 04:34:50;;;;;;;109.97;50.30;;;;;;;4.75;86.40;102272.97;5096723;28;20039;-42
2021/03/04 04:37:16;;;;;;;102.47;49.77;;;;;;;4.80;86.31;102267.16;5096026;28;20024;-41
2021/03/04 04:39:41;;;;;;;107.53;51.37;;;;;;;4.85;86.42;102267.50;5096638;28;20110;-41
2021/03/04 04:42:07;;;;;;;112.57;52.87;;;;;;;4.81;86.19;102269.66;5096251;28;20421;-42
2021/03/04 04:44:32;;;;;;;127.20;56.80;;;;;;;4.84;86.14;102272.03;5096546;28;20036;-42
2021/03/04 04:46:57;;;;;;;113.97;54.77;;;;;;;4.89;86.15;102275.09;5077614;28;20047;-41
2021/03/04 04:49:23;;;;;;;111.23;50.77;;;;;;;4.91;86.20;102266.88;5095892;28;20024;-41
2021/03/04 04:51:48;;;;;;;129.87;53.80;;;;;;;4.86;86.51;102258.47;5095537;28;20032;-41
2021/03/04 04:54:13;;;;;;;130.27;55.73;;;;;;;4.75;86.90;102251.53;5095485;28;20031;-41
2021/03/04 04:56:39;;;;;;;120.67;50.97;;;;;;;4.80;86.84;102253.75;5095984;28;20158;-41
2021/03/04 04:59:04;;;;;;;124.60;50.73;;;;;;;4.79;86.87;102252.06;5095427;28;20027;-41
2021/03/04 05:01:29;;;;;;;117.03;49.70;;;;;;;4.82;86.84;102249.88;5095631;28;20107;-41
2021/03/04 05:03:55;;;;;;;143.87;49.77;;;;;;;4.81;86.83;102258.94;5096130;28;20028;-41
2021/03/04 05:06:20;;;;;;;116.57;49.63;;;;;;;4.80;86.88;102259.09;5095410;28;20453;-41
2021/03/04 05:08:46;;;;;;;111.63;48.73;;;;;;;4.74;87.14;102246.34;5096124;28;20035;-41
2021/03/04 05:11:11;;;;;;;112.93;49.40;;;;;;;4.79;87.30;102238.66;5095698;28;20089;-41
2021/03/04 05:13:37;;;;;;;104.47;46.60;;;;;;;4.76;87.14;102236.28;5095682;28;20480;-41
2021/03/04 05:16:02;;;;;;;90.33;43.17;;;;;;;4.82;86.94;102231.13;5095562;28;20069;-41
2021/03/04 05:18:27;;;;;;;105.33;47.17;;;;;;;4.76;87.34;102228.25;5095801;28;20027;-42
2021/03/04 05:20:53;;;;;;;96.77;43.17;;;;;;;4.77;87.20;102227.25;5095320;28;20028;-41
2021/03/04 05:23:19;;;;;;;99.83;45.37;;;;;;;4.67;87.46;102229.22;5094944;28;20032;-41
2021/03/04 05:25:44;;;;;;;90.75;43.40;;;;;;;4.61;87.07;102218.13;5095354;28;20016;-42
2021/03/04 05:28:10;;;;;;;86.13;39.50;;;;;;;4.63;87.67;102218.78;5094784;28;20028;-41
2021/03/04 05:30:35;;;;;;;114.77;43.73;;;;;;;4.51;87.69;102208.53;5095314;28;20034;-41
2021/03/04 05:33:00;;;;;;;84.93;39.30;;;;;;;4.50;87.76;102215.72;5095038;28;20361;-42
2021/03/04 05:35:26;;;;;;;87.60;40.80;;;;;;;4.56;87.45;102212.41;5095281;28;20498;-41
2021/03/04 05:37:51;;;;;;;92.87;42.47;;;;;;;4.48;87.97;102219.53;5095205;28;20028;-41
2021/03/04 05:40:17;;;;;;;83.17;38.40;;;;;;;4.52;87.83;102219.06;5095432;28;20024;-41
2021/03/04 05:42:43;;;;;;;86.05;37.47;;;;;;;4.51;87.71;102213.88;5094789;28;20024;-41
2021/03/04 05:45:11;;;;;;;76.93;36.83;;;;;;;4.61;88.02;102225.31;5094702;28;20024;-41
2021/03/04 05:47:38;;;;;;;74.10;36.17;;;;;;;4.58;87.61;102229.16;5095163;28;20081;-41
2021/03/04 05:50:06;;;;;;;68.22;33.95;;;;;;;4.51;87.63;102221.91;5094354;28;20028;-41
2021/03/04 05:52:37;;;;;;;65.60;33.33;;;;;;;4.35;88.03;102220.81;5094465;28;20028;-41
2021/03/04 05:55:03;;;;;;;62.42;32.00;;;;;;;4.37;87.59;102221.47;5094577;28;20065;-41
2021/03/04 05:57:32;;;;;;;52.22;28.05;;;;;;;4.39;87.93;102224.00;5094249;28;20044;-41
2021/03/04 05:59:57;;;;;;;56.58;28.27;;;;;;;4.36;87.43;102222.47;5095065;28;20073;-42
2021/03/04 06:02:23;;;;;;;60.70;28.87;;;;;;;4.35;87.48;102214.63;5094112;28;20035;-42
2021/03/04 06:04:52;;;;;;;59.17;29.27;;;;;;;4.42;87.75;102220.16;5094412;28;20264;-42
2021/03/04 06:07:18;;;;;;;65.93;32.03;;;;;;;4.33;87.76;102225.47;5094302;28;20028;-41
2021/03/04 06:09:43;;;;;;;59.60;30.25;;;;;;;4.43;87.55;102228.03;5094402;28;20043;-42
2021/03/04 06:12:10;;;;;;;60.25;31.00;;;;;;;4.36;87.47;102229.69;5094541;28;20088;-42
2021/03/04 06:14:37;;;;;;;56.78;27.67;;;;;;;4.46;87.64;102233.09;5094700;28;20482;-43
2021/03/04 06:17:16;;;;;;;59.95;30.63;;;;;;;4.45;87.19;102234.09;5094199;28;20035;-43
2021/03/04 06:19:57;;;;;;;63.00;30.15;;;;;;;4.46;87.28;102242.97;5094133;28;20024;-42
2021/03/04 06:22:29;;;;;;;57.38;30.77;;;;;;;4.33;87.21;102236.16;5094902;28;20115;-42
2021/03/04 06:24:56;;;;;;;60.58;28.90;;;;;;;4.40;87.34;102241.78;5093828;28;20035;-42
2021/03/04 06:27:29;;;;;;;53.40;27.25;;;;;;;4.30;86.76;102231.16;5093854;28;20404;-42
2021/03/04 06:29:56;;;;;;;53.10;27.02;;;;;;;4.44;86.97;102237.78;5094484;28;20031;-41
2021/03/04 06:32:23;;;;;;;55.83;27.80;;;;;;;4.42;86.54;102241.59;5093939;28;20372;-43
2021/03/04 06:35:10;;;;;;;52.67;27.23;;;;;;;4.44;86.78;102229.75;5093884;28;20028;-42
2021/03/04 06:37:38;;;;;;;55.60;27.00;;;;;;;4.48;87.08;102238.28;5082130;28;20177;-42
2021/03/04 06:40:16;;;;;;;58.72;30.25;;;;;;;4.40;86.62;102228.38;5093576;28;20035;-42
2021/03/04 06:42:43;;;;;;;56.97;29.23;;;;;;;4.43;86.37;102229.88;5094104;28;20028;-43
2021/03/04 06:45:36;;;;;;;58.72;29.58;;;;;;;4.46;86.44;102241.13;5094255;28;20035;-42
2021/03/04 06:48:16;;;;;;;55.55;28.30;;;;;;;4.44;86.47;102245.81;5088919;28;20519;-42
2021/03/04 06:50:43;;;;;;;64.93;32.20;;;;;;;4.44;86.54;102247.63;5094033;28;20380;-42
2021/03/04 06:53:13;;;;;;;57.95;29.98;;;;;;;4.39;86.32;102250.78;5094149;28;20027;-42
2021/03/04 06:56:06;;;;;;;59.75;30.90;;;;;;;4.42;86.41;102252.31;5093878;28;20507;-42
2021/03/04 06:58:36;;;;;;;53.13;29.48;;;;;;;4.39;86.17;102242.75;5093238;28;20048;-42
2021/03/04 07:01:05;;;;;;;52.45;27.77;;;;;;;4.42;86.47;102250.47;5093635;28;20504;-42
2021/03/04 07:03:42;;;;;;;53.00;27.77;;;;;;;4.43;86.31;102240.59;5093205;28;20479;-42
2021/03/04 07:06:16;;;;;;;54.80;29.15;;;;;;;4.38;86.72;102241.06;5093700;28;20020;-42
2021/03/04 07:08:43;;;;;;;60.33;30.70;;;;;;;4.36;86.93;102240.41;5093498;28;20166;-42
2021/03/04 07:11:10;;;;;;;65.13;32.35;;;;;;;4.33;86.83;102238.84;5093794;28;20089;-42
2021/03/04 07:13:37;;;;;;;67.18;32.80;;;;;;;4.28;87.00;102237.66;5093235;28;20035;-42
2021/03/04 07:16:16;;;;;;;74.95;34.47;;;;;;;4.14;88.05;102239.03;5093450;28;20028;-42
2021/03/04 07:19:02;;;;;;;71.00;32.85;;;;;;;4.25;87.69;102229.94;5093424;28;20111;-42
2021/03/04 07:21:38;;;;;;;81.90;36.15;;;;;;;4.20;88.16;102221.50;5093926;28;20057;-42
2021/03/04 07:24:05;;;;;;;86.28;34.83;;;;;;;4.19;88.10;102227.84;5094215;28;20024;-42
2021/03/04 07:26:31;;;;;;;68.75;33.80;;;;;;;4.16;88.03;102228.19;5093113;28;20055;-42
2021/03/04 07:28:58;;;;;;;86.28;38.40;;;;;;;4.04;88.12;102224.91;5093391;28;20028;-42
2021/03/04 07:31:23;;;;;;;77.88;34.50;;;;;;;4.08;88.39;102224.44;5093267;28;20110;-42
2021/03/04 07:33:51;;;;;;;94.57;39.80;;;;;;;3.92;88.98;102213.59;5093632;28;20081;-42
2021/03/04 07:36:22;;;;;;;89.65;36.20;;;;;;;3.84;89.55;102213.50;5093170;28;20036;-42
2021/03/04 07:38:57;;;;;;;83.20;35.60;;;;;;;3.90;89.27;102212.06;5094543;28;20376;-42
2021/03/04 07:41:38;;;;;;;75.78;34.67;;;;;;;3.95;89.29;102212.44;5097111;28;20383;-42
2021/03/04 07:44:04;;;;;;;77.93;38.05;;;;;;;3.87;89.27;102230.13;5097685;28;20047;-42
2021/03/04 07:46:29;;;;;;;86.68;37.92;;;;;;;3.67;89.55;102233.94;5097251;28;20020;-42
2021/03/04 07:48:54;;;;;;;71.93;33.33;;;;;;;3.81;89.24;102232.56;5097715;28;20400;-42
2021/03/04 07:51:20;;;;;;;65.77;32.67;;;;;;;3.84;89.33;102227.72;5096700;28;20032;-43
2021/03/04 07:53:47;;;;;;;66.93;31.15;;;;;;;3.88;88.96;102223.75;5097520;28;20023;-42
2021/03/04 07:56:22;;;;;;;65.15;31.85;;;;;;;4.02;89.19;102224.22;5097270;28;20076;-42
2021/03/04 07:58:47;;;;;;;56.47;28.55;;;;;;;4.10;88.92;102226.97;5096593;28;20032;-42
2021/03/04 08:01:13;;;;;;;66.93;33.27;;;;;;;4.13;88.25;102229.31;5097454;28;20038;-42
2021/03/04 08:03:46;;;;;;;69.57;33.53;;;;;;;4.10;89.02;102240.38;5096530;28;20032;-42
2021/03/04 08:06:11;;;;;;;70.03;33.05;;;;;;;4.10;88.64;102240.38;5096687;28;20468;-42
2021/03/04 08:08:38;;;;;;;75.40;34.77;;;;;;;4.03;88.86;102231.25;5096675;28;20036;-42
2021/03/04 08:11:03;;;;;;;73.88;32.60;;;;;;;4.05;88.56;102223.91;5096251;28;20024;-42
2021/03/04 08:13:39;;;;;;;68.53;32.90;;;;;;;4.07;88.80;102224.59;5096506;28;20437;-42
2021/03/04 08:16:14;;;;;;;79.40;33.28;;;;;;;4.06;88.78;102226.44;5096504;28;20487;-42
2021/03/04 08:18:40;;;;;;;78.93;32.90;;;;;;;4.00;88.50;102215.50;5096486;28;20032;-42
2021/03/04 08:21:08;;;;;;;71.68;33.58;;;;;;;4.01;89.17;102217.19;5096953;28;20345;-42
2021/03/04 08:23:43;;;;;;;81.00;36.63;;;;;;;3.94;88.67;102205.41;5096812;28;20460;-43
2021/03/04 08:26:29;;;;;;;75.22;34.47;;;;;;;4.00;88.85;102218.16;5097079;28;20127;-42
2021/03/04 08:29:11;;;;;;;66.00;30.52;;;;;;;4.04;nan;102216.88;5096502;28;20384;-42
2021/03/04 08:31:44;;;;;;;64.85;30.48;;;;;;;4.09;88.90;102204.69;5096802;28;20051;-42
2021/03/04 08:34:09;;;;;;;71.00;32.28;;;;;;;4.11;88.43;102215.25;5096764;28;20028;-42
2021/03/04 08:36:42;;;;;;;80.77;34.23;;;;;;;4.03;88.71;102204.47;5096664;28;20379;-42
2021/03/04 08:39:08;;;;;;;71.97;32.72;;;;;;;3.99;88.79;102189.72;5096928;28;20104;-42
2021/03/04 08:41:34;;;;;;;75.28;32.45;;;;;;;3.96;88.39;102182.03;5096009;28;20110;-42
2021/03/04 08:44:13;;;;;;;70.43;33.97;;;;;;;4.03;89.00;102175.88;5096105;28;20024;-42
2021/03/04 08:46:45;;;;;;;74.13;32.85;;;;;;;3.98;88.88;102175.50;5095521;28;20537;-42
2021/03/04 08:49:14;;;;;;;72.53;32.80;;;;;;;4.01;89.28;102183.22;5096232;28;20376;-42
2021/03/04 08:51:43;;;;;;;80.78;32.80;;;;;;;3.99;88.92;102177.19;5095378;28;20028;-42
2021/03/04 08:54:19;;;;;;;99.28;37.47;;;;;;;3.83;89.25;102180.56;5096546;28;20043;-42
2021/03/04 08:56:58;;;;;;;78.05;33.72;;;;;;;3.96;89.22;102184.69;5095854;28;20040;-42
2021/03/04 08:59:27;;;;;;;79.60;36.00;;;;;;;3.91;89.29;102187.00;5095958;28;20115;-42
2021/03/04 09:01:54;;;;;;;71.90;33.63;;;;;;;3.83;89.26;102187.75;5095891;28;20024;-42
2021/03/04 09:04:24;;;;;;;73.32;34.33;;;;;;;3.93;88.79;102191.19;5096140;28;20024;-42
2021/03/04 09:06:49;;;;;;;68.25;31.13;;;;;;;4.01;88.90;102180.56;5095515;28;20024;-42
2021/03/04 09:09:27;;;;;;;69.53;31.70;;;;;;;4.09;88.57;102182.44;5095291;28;20032;-43
2021/03/04 09:11:55;;;;;;;66.40;31.55;;;;;;;4.01;88.52;102177.88;5095546;28;20026;-42
2021/03/04 09:14:31;;;;;;;71.50;31.88;;;;;;;4.09;88.65;102195.81;5094401;28;20176;-42
2021/03/04 09:16:57;;;;;;;66.13;30.73;;;;;;;3.94;88.50;102198.22;5095361;28;20020;-42
2021/03/04 09:19:35;;;;;;;62.40;30.95;;;;;;;4.00;88.63;102199.44;5095115;28;20024;-42
2021/03/04 09:22:07;;;;;;;57.55;28.60;;;;;;;4.08;88.12;102197.66;5096099;28;20027;-42
2021/03/04 09:24:33;;;;;;;60.05;29.02;;;;;;;4.08;87.29;102196.81;5095243;28;20069;-42
2021/03/04 09:27:06;;;;;;;63.85;29.50;;;;;;;4.12;87.72;102207.06;5095034;28;20036;-42
2021/03/04 09:29:33;;;;;;;66.55;31.58;;;;;;;4.17;87.57;102205.78;5095678;28;20035;-42
2021/03/04 09:31:58;;;;;;;;;;;;;;;4.24;87.28;102209.50;5095785;28;20032;-42
2021/03/04 09:34:34;;;;;;;70.28;32.47;;;;;;;4.09;87.15;102212.72;5095285;28;20394;-42
2021/03/04 09:37:13;;;;;;;70.67;32.20;;;;;;;4.13;86.95;102213.25;5095196;28;20388;-42
2021/03/04 09:39:42;;;;;;;61.95;32.13;;;;;;;4.18;87.12;102213.63;5094588;28;20490;-42
2021/03/04 09:42:13;;;;;;;62.75;31.40;;;;;;;4.22;86.87;102215.00;5095634;28;20368;-42
2021/03/04 09:44:54;;;;;;;64.05;32.67;;;;;;;4.07;86.98;102214.72;5095087;28;20119;-42
2021/03/04 09:47:24;;;;;;;66.30;31.80;;;;;;;4.04;86.92;102215.03;5094313;28;20024;-42
2021/03/04 09:49:54;;;;;;;62.22;30.67;;;;;;;4.16;86.93;102212.97;5095478;28;20111;-43
2021/03/04 09:52:30;;;;;;;60.55;29.55;;;;;;;4.21;86.97;102212.50;5094275;28;20028;-43
2021/03/04 09:55:11;;;;;;;57.80;29.02;;;;;;;4.21;87.10;102216.00;5094515;28;20464;-42
2021/03/04 09:57:40;;;;;;;62.42;30.15;;;;;;;4.21;86.93;102207.97;5093577;28;20048;-43
2021/03/04 10:00:15;;;;;;;62.45;30.55;;;;;;;4.22;86.69;102206.97;5094790;28;20028;-43
2021/03/04 10:02:41;;;;;;;69.55;32.53;;;;;;;4.16;86.67;102209.44;5093290;28;20410;-42
2021/03/04 10:05:13;;;;;;;65.90;32.50;;;;;;;4.16;86.61;102201.41;5094489;28;20028;-42
2021/03/04 10:07:38;;;;;;;67.85;32.63;;;;;;;4.23;87.07;102205.13;5094906;28;20032;-42
2021/03/04 10:10:12;;;;;;;68.30;32.87;;;;;;;4.17;86.45;102209.28;5094410;28;20077;-42
2021/03/04 10:12:48;;;;;;;65.82;31.98;;;;;;;4.29;86.99;102204.50;5094868;28;20020;-42
2021/03/04 10:15:23;;;;;;;66.07;32.55;;;;;;;4.30;86.71;102203.53;5094231;28;20034;-42
2021/03/04 10:17:49;;;;;;;75.15;33.60;;;;;;;4.34;86.49;102208.41;5094250;28;20034;-42
2021/03/04 10:20:15;;;;;;;71.03;34.07;;;;;;;4.34;86.15;102207.56;5094544;28;20028;-42
2021/03/04 10:22:40;;;;;;;61.77;31.53;;;;;;;4.42;86.09;102198.75;5094144;28;20070;-42
2021/03/04 10:25:06;;;;;;;61.20;32.03;;;;;;;4.50;86.56;102198.81;5094420;28;20254;-42
2021/03/04 10:27:31;;;;;;;68.65;33.22;;;;;;;4.47;86.91;102193.75;5094455;28;20059;-42
2021/03/04 10:29:56;;;;;;;69.13;32.33;;;;;;;4.49;86.33;102200.66;5094055;28;20032;-42
2021/03/04 10:32:21;;;;;;;66.77;32.00;;;;;;;4.58;86.39;102206.88;5094004;28;20024;-42
2021/03/04 10:34:47;;;;;;;65.17;30.80;;;;;;;4.52;86.40;102202.16;5094291;28;20020;-42
2021/03/04 10:37:12;;;;;;;69.47;32.27;;;;;;;4.58;86.36;102206.88;5093577;28;20062;-42
2021/03/04 10:39:37;;;;;;;64.57;32.27;;;;;;;4.57;86.19;102205.19;5094020;28;20052;-42
2021/03/04 10:42:03;;;;;;;67.73;32.60;;;;;;;4.51;85.46;102198.63;5094141;28;20421;-42
2021/03/04 10:44:28;;;;;;;64.47;31.83;;;;;;;4.52;86.29;102200.31;5094425;28;20055;-42
2021/03/04 10:46:53;;;;;;;67.27;33.17;;;;;;;4.57;86.25;102194.47;5093661;28;20460;-42
2021/03/04 10:49:19;;;;;;;70.07;31.43;;;;;;;4.64;86.17;102198.22;5094165;28;20028;-42
2021/03/04 10:51:44;;;;;;;69.50;31.97;;;;;;;4.64;85.84;102195.53;5094110;28;20025;-42
2021/03/04 10:54:09;;;;;;;68.93;31.40;;;;;;;4.65;86.11;102194.53;5094133;28;20036;-42
2021/03/04 10:56:35;;;;;;;69.67;32.37;;;;;;;4.68;85.96;102193.38;5094369;28;20119;-42
2021/03/04 10:59:00;;;;;;;68.83;31.33;;;;;;;4.65;86.05;102192.69;5093675;28;20020;-42
2021/03/04 11:01:26;;;;;;;68.63;32.30;;;;;;;4.65;85.79;102191.88;5093506;28;20434;-42
2021/03/04 11:03:51;;;;;;;71.17;32.43;;;;;;;4.66;86.06;102198.91;5094354;28;20301;-42
2021/03/04 11:06:16;;;;;;;67.27;32.47;;;;;;;4.65;85.98;102199.91;5093107;28;20369;-42
2021/03/04 11:08:41;;;;;;;67.27;32.23;;;;;;;4.55;85.50;102202.69;5093672;28;20589;-42
2021/03/04 11:11:07;;;;;;;72.40;32.13;;;;;;;4.50;86.26;102206.84;5093408;28;20111;-42
2021/03/04 11:13:32;;;;;;;69.67;31.27;;;;;;;4.52;86.12;102200.31;5094535;28;20016;-42
2021/03/04 11:15:58;;;;;;;86.80;39.03;;;;;;;4.44;85.97;102210.13;5098567;28;20081;-42
2021/03/04 11:18:23;;;;;;;75.33;34.13;;;;;;;4.48;86.53;102203.47;5097246;28;20391;-42
2021/03/04 11:20:49;;;;;;;70.85;33.05;;;;;;;4.49;86.21;102203.31;5098469;28;20024;-42
2021/03/04 11:23:15;;;;;;;75.53;33.97;;;;;;;4.49;85.81;102208.69;5097533;28;20495;-42